createdAt,value
2023-01-30T00:05:19.605Z,0
2023-01-30T00:11:42.455Z,0
2023-01-30T00:18:02.343Z,0
2023-01-30T00:24:25.563Z,0
2023-01-30T00:30:45.548Z,0
2023-01-30T00:37:08.768Z,0
2023-01-30T00:43:28.326Z,0
2023-01-30T00:49:51.552Z,0
2023-01-30T00:56:11.343Z,0
2023-01-30T01:02:34.496Z,0
2023-01-30T01:08:54.351Z,0
2023-01-30T01:15:17.782Z,0
2023-01-30T01:21:37.471Z,0
2023-01-30T01:28:00.378Z,0
2023-01-30T01:34:20.352Z,0
2023-01-30T01:40:43.412Z,0
2023-01-30T01:47:03.392Z,0
2023-01-30T01:53:26.444Z,0
2023-01-30T01:59:46.395Z,0
2023-01-30T02:06:09.589Z,0
2023-01-30T02:12:29.483Z,0
2023-01-30T02:18:52.376Z,0
2023-01-30T02:25:12.411Z,0
2023-01-30T02:31:35.570Z,0
2023-01-30T02:37:55.367Z,0
2023-01-30T02:44:18.469Z,0
2023-01-30T02:50:38.383Z,0
2023-01-30T02:57:01.466Z,0
2023-01-30T03:03:21.416Z,0
2023-01-30T03:09:44.402Z,0
2023-01-30T03:16:04.336Z,0
2023-01-30T03:22:27.370Z,0
2023-01-30T03:28:47.377Z,0
2023-01-30T03:35:10.455Z,0
2023-01-30T03:41:30.438Z,0
2023-01-30T03:47:53.442Z,0
2023-01-30T03:54:13.383Z,0
2023-01-30T04:00:36.363Z,0
2023-01-30T04:06:56.444Z,0
2023-01-30T04:22:30.289Z,0
2023-01-30T04:28:50.357Z,0
2023-01-30T04:35:13.504Z,0
2023-01-30T04:41:33.357Z,0
2023-01-30T04:47:56.371Z,0
2023-01-30T04:54:16.355Z,0
2023-01-30T05:00:39.526Z,0
2023-01-30T05:06:59.437Z,0
2023-01-30T05:13:22.364Z,0
2023-01-30T05:19:42.521Z,0
2023-01-30T05:26:05.669Z,0
2023-01-30T05:32:25.354Z,0
2023-01-30T05:38:48.359Z,0
2023-01-30T05:45:08.343Z,0
2023-01-30T05:51:31.436Z,0
2023-01-30T05:57:51.435Z,0
2023-01-30T06:04:14.552Z,0
2023-01-30T06:10:34.415Z,0
2023-01-30T06:16:57.492Z,0
2023-01-30T06:23:17.517Z,0
2023-01-30T06:29:40.416Z,0
2023-01-30T06:36:00.542Z,0
2023-01-30T06:42:23.425Z,0
2023-01-30T06:48:43.371Z,0
2023-01-30T06:55:06.444Z,2
2023-01-30T07:01:28.668Z,5
2023-01-30T07:07:49.480Z,9
2023-01-30T07:14:09.454Z,13
2023-01-30T07:20:32.357Z,20
2023-01-30T07:26:52.338Z,43
2023-01-30T07:33:15.388Z,52
2023-01-30T07:39:35.377Z,54
2023-01-30T07:45:58.386Z,54
2023-01-30T07:52:18.451Z,91
2023-01-30T07:58:41.431Z,157
2023-01-30T08:05:01.499Z,150
2023-01-30T08:11:24.506Z,329
2023-01-30T08:17:44.361Z,152
2023-01-30T08:24:07.423Z,161
2023-01-30T08:30:27.554Z,173
2023-01-30T08:36:50.466Z,711
2023-01-30T08:43:10.423Z,526
2023-01-30T08:49:33.471Z,819
2023-01-30T08:55:53.403Z,664
2023-01-30T09:02:16.434Z,636
2023-01-30T09:08:36.431Z,1393
2023-01-30T09:32:36.263Z,1216
2023-01-30T09:38:59.355Z,1775
2023-01-30T09:45:19.468Z,1986
2023-01-30T09:51:42.420Z,2106
2023-01-30T09:58:02.390Z,2240
2023-01-30T10:04:25.543Z,2823
2023-01-30T10:10:45.388Z,2352
2023-01-30T10:17:08.369Z,1861
2023-01-30T10:23:28.434Z,2016
2023-01-30T10:29:51.461Z,1528
2023-01-30T10:36:11.444Z,1750
2023-01-30T10:42:34.631Z,1718
2023-01-30T10:48:54.672Z,2283
2023-01-30T10:55:20.056Z,1455
2023-01-30T11:01:37.549Z,1772
2023-01-30T11:08:00.390Z,1746
2023-01-30T11:14:20.411Z,1830
2023-01-30T11:20:43.411Z,2345
2023-01-30T11:27:03.483Z,2699
2023-01-30T11:33:26.478Z,1043
2023-01-30T11:39:46.388Z,1693
2023-01-30T11:46:09.603Z,900
2023-01-30T11:52:29.550Z,745
2023-01-30T11:58:52.360Z,924
2023-01-30T12:05:12.462Z,898
2023-01-30T12:11:35.362Z,1863
2023-01-30T12:17:55.415Z,1147
2023-01-30T12:24:19.393Z,1527
2023-01-30T12:37:00.476Z,1264
2023-01-30T12:43:20.401Z,1164
2023-01-30T12:49:43.640Z,871
2023-01-30T12:56:03.324Z,957
2023-01-30T13:02:26.830Z,1010
2023-01-30T13:08:46.515Z,1614
2023-01-30T13:15:09.403Z,1180
2023-01-30T13:21:29.484Z,2092
2023-01-30T13:27:52.373Z,2476
2023-01-30T13:34:12.379Z,3007
2023-01-30T13:40:35.473Z,1327
2023-01-30T13:46:55.488Z,1018
2023-01-30T13:53:18.377Z,1071
2023-01-30T13:59:38.489Z,1129
2023-01-30T14:06:01.391Z,937
2023-01-30T14:12:21.545Z,1196
2023-01-30T14:35:27.372Z,1453
2023-01-30T14:41:50.327Z,1369
2023-01-30T14:48:10.432Z,1373
2023-01-30T14:54:41.479Z,973
2023-01-30T15:00:53.498Z,1086
2023-01-30T15:07:16.372Z,1685
2023-01-30T15:13:36.411Z,1452
2023-01-30T15:19:59.471Z,1110
2023-01-30T15:26:19.427Z,795
2023-01-30T15:32:42.577Z,561
2023-01-30T15:39:02.387Z,353
2023-01-30T15:45:25.392Z,139
2023-01-30T15:51:45.495Z,209
2023-01-30T15:58:08.394Z,83
2023-01-30T16:04:28.417Z,127
2023-01-30T16:10:51.365Z,88
2023-01-30T16:17:11.367Z,50
2023-01-30T16:23:34.391Z,28
2023-01-30T16:29:54.520Z,13
2023-01-30T16:36:17.436Z,13
2023-01-30T16:42:37.406Z,5
2023-01-30T16:49:00.461Z,1
2023-01-30T16:55:20.347Z,0
2023-01-30T17:01:43.503Z,0
2023-01-30T17:08:03.466Z,0
2023-01-30T17:14:26.407Z,0
2023-01-30T17:20:46.358Z,0
2023-01-30T17:27:09.454Z,0
2023-01-30T17:33:29.423Z,0
2023-01-30T17:39:52.496Z,0
2023-01-30T17:46:12.547Z,0
2023-01-30T17:52:35.396Z,0
2023-01-30T17:58:55.374Z,0
2023-01-30T18:05:18.400Z,0
2023-01-30T18:11:38.470Z,0
2023-01-30T18:18:01.355Z,0
2023-01-30T18:24:21.442Z,0
2023-01-30T18:30:44.600Z,0
2023-01-30T18:37:04.333Z,0
2023-01-30T18:43:27.493Z,0
2023-01-30T18:49:47.400Z,0
2023-01-30T18:56:10.344Z,0
2023-01-30T19:02:30.444Z,0
2023-01-30T19:08:53.373Z,0
2023-01-30T19:15:13.396Z,0
2023-01-30T19:21:36.488Z,0
2023-01-30T19:38:49.270Z,0
2023-01-30T19:45:12.339Z,0
2023-01-30T19:51:32.358Z,0
2023-01-30T19:57:55.396Z,0
2023-01-30T20:04:15.361Z,0
2023-01-30T20:10:38.473Z,0
2023-01-30T20:16:58.359Z,0
2023-01-30T20:23:21.358Z,0
2023-01-30T20:29:41.415Z,0
2023-01-30T20:36:04.432Z,0
2023-01-30T20:42:24.589Z,0
2023-01-30T20:48:47.446Z,0
2023-01-30T20:55:07.428Z,0
2023-01-30T21:01:30.515Z,0
2023-01-30T21:07:50.379Z,0
2023-01-30T21:14:13.465Z,0
2023-01-30T21:20:33.373Z,0
2023-01-30T21:26:56.338Z,0
2023-01-30T21:33:16.443Z,0
2023-01-30T21:39:39.341Z,0
2023-01-30T21:45:59.426Z,0
2023-01-30T21:52:22.400Z,0
2023-01-30T21:58:42.371Z,0
2023-01-30T22:05:05.513Z,0
2023-01-30T22:11:25.397Z,0
2023-01-30T22:17:48.480Z,0
2023-01-30T22:24:08.544Z,0
2023-01-30T22:30:31.412Z,0
2023-01-30T22:36:51.397Z,0
2023-01-30T22:43:14.379Z,0
2023-01-30T22:49:34.490Z,0
2023-01-30T22:55:57.422Z,0
2023-01-30T23:20:11.343Z,0
2023-01-30T23:26:31.395Z,0
2023-01-30T23:32:54.371Z,0
2023-01-30T23:39:14.471Z,0
2023-01-30T23:45:37.629Z,0
2023-01-30T23:51:57.385Z,0
2023-01-30T23:58:20.388Z,0
